Time;durP1;ratioP1;P1;durP2;ratioP2;P2;SDS_P1;SDS_P2;PMS_P1;PMS_P2;Temp;Humidity;BMP_temperature;BMP_pressure;BME280_temperature;BME280_humidity;BME280_pressure;Samples;Min_cycle;Max_cycle;Signal;HPM_P1;HPM_P2
2023/10/30 00:00:47;;;;;;;;;;;;;;;;;;5064297;27;130213;-79
2023/10/30 00:03:14;;;;;;;;;;;;;;;;;;5064859;27;122965;-78
2023/10/30 00:05:41;;;;;;;;;;;;;;;;;;5067578;27;99298;-78
2023/10/30 00:08:08;;;;;;;;;;;;;;;;;;5063920;27;129073;-79
2023/10/30 00:10:35;;;;;;;;;;;;;;;;;;5064873;27;129634;-78
2023/10/30 00:13:01;;;;;;;;;;;;;;;;;;5065042;27;130242;-78
2023/10/30 00:15:27;;;;;;;;;;;;;;;;;;5064319;27;128565;-78
2023/10/30 00:17:54;;;;;;;;;;;;;;;;;;5064474;27;129113;-78
2023/10/30 00:20:20;;;;;;;;;;;;;;;;;;5064314;27;130164;-78
2023/10/30 00:22:47;;;;;;;;;;;;;;;;;;5064026;27;129861;-78
2023/10/30 00:25:13;;;;;;;;;;;;;;;;;;5064493;27;129898;-77
2023/10/30 00:27:41;;;;;;;;;;;;;;;;;;5067472;27;129617;-77
2023/10/30 00:30:08;;;;;;;;;;;;;;;;;;5066517;27;129274;-78
2023/10/30 00:32:34;;;;;;;;;;;;;;;;;;5068815;27;121762;-78
2023/10/30 00:35:01;;;;;;;;;;;;;;;;;;5067353;27;125865;-78
2023/10/30 00:37:29;;;;;;;;;;;;;;;;;;5068497;27;99813;-77
2023/10/30 00:39:56;;;;;;;;;;;;;;;;;;5067744;27;128235;-78
2023/10/30 00:42:26;;;;;;;;;;;;;;;;;;5066097;27;127731;-77
2023/10/30 00:44:52;;;;;;;;;;;;;;;;;;5066039;27;128350;-78
2023/10/30 00:47:19;;;;;;;;;;;;;;;;;;5067119;27;128062;-77
2023/10/30 00:49:48;;;;;;;;;;;;;;;;;;5069360;27;128242;-78
2023/10/30 00:52:17;;;;;;;;;;;;;;;;;;5067611;27;102138;-78
2023/10/30 00:54:44;;;;;;;;;;;;;;;;;;5067932;27;128000;-76
2023/10/30 00:57:11;;;;;;;;;;;;;;;;;;5065541;27;129467;-77
2023/10/30 00:59:37;;;;;;;;;;;;;;;;;;5066465;27;128382;-77
2023/10/30 01:02:04;;;;;;;;;;;;;;;;;;5068413;27;111497;-78
2023/10/30 01:04:31;;;;;;;;;;;;;;;;;;5066005;27;114255;-78
2023/10/30 01:06:59;;;;;;;;;;;;;;;;;;5066754;27;100077;-79
2023/10/30 01:09:25;;;;;;;;;;;;;;;;;;5068382;27;99488;-78
2023/10/30 01:11:52;;;;;;;;;;;;;;;;;;5069926;27;128484;-79
2023/10/30 01:14:18;;;;;;;;;;;;;;;;;;5068789;27;98875;-78
2023/10/30 01:16:44;;;;;;;;;;;;;;;;;;5067541;27;128972;-77
2023/10/30 01:19:11;;;;;;;;;;;;;;;;;;5066667;27;129461;-78
2023/10/30 01:21:37;;;;;;;;;;;;;;;;;;5065880;27;132150;-78
2023/10/30 01:24:05;;;;;;;;;;;;;;;;;;5065778;27;111812;-78
2023/10/30 01:26:31;;;;;;;;;;;;;;;;;;5067920;27;128170;-78
2023/10/30 01:28:57;;;;;;;;;;;;;;;;;;5067599;27;118049;-78
2023/10/30 01:31:27;;;;;;;;;;;;;;;;;;5070057;27;110364;-78
2023/10/30 01:33:54;;;;;;;;;;;;;;;;;;5067196;27;99329;-78
2023/10/30 01:36:20;;;;;;;;;;;;;;;;;;5066032;27;132194;-77
2023/10/30 01:38:47;;;;;;;;;;;;;;;;;;5066617;27;128148;-77
2023/10/30 01:41:13;;;;;;;;;;;;;;;;;;5064842;27;117243;-77
2023/10/30 01:43:40;;;;;;;;;;;;;;;;;;5065700;27;129519;-76
2023/10/30 01:46:07;;;;;;;;;;;;;;;;;;5066903;27;99323;-77
2023/10/30 01:48:34;;;;;;;;;;;;;;;;;;5065626;27;126802;-78
2023/10/30 01:51:01;;;;;;;;;;;;;;;;;;5065940;27;127698;-78
2023/10/30 01:53:27;;;;;;;;;;;;;;;;;;5069937;27;108355;-77
2023/10/30 01:55:55;;;;;;;;;;;;;;;;;;5066999;27;129368;-77
2023/10/30 01:58:22;;;;;;;;;;;;;;;;;;5065292;27;108939;-78
2023/10/30 02:00:49;;;;;;;;;;;;;;;;;;5064902;27;127692;-78
2023/10/30 02:03:16;;;;;;;;;;;;;;;;;;5066698;27;129441;-77
2023/10/30 02:05:42;;;;;;;;;;;;;;;;;;5066845;27;126700;-78
2023/10/30 02:08:09;;;;;;;;;;;;;;;;;;5064425;27;128110;-77
2023/10/30 02:10:35;;;;;;;;;;;;;;;;;;5065766;27;127079;-77
2023/10/30 02:13:02;;;;;;;;;;;;;;;;;;5065732;27;128243;-78
2023/10/30 02:15:28;;;;;;;;;;;;;;;;;;5070953;27;98492;-77
2023/10/30 02:17:55;;;;;;;;;;;;;;;;;;5064450;27;129256;-76
2023/10/30 02:20:21;;;;;;;;;;;;;;;;;;5064553;27;128685;-76
2023/10/30 02:22:48;;;;;;;;;;;;;;;;;;5066028;27;129756;-76
2023/10/30 02:25:15;;;;;;;;;;;;;;;;;;5067503;27;100781;-77
2023/10/30 02:27:42;;;;;;;;;;;;;;;;;;5064759;27;100245;-78
2023/10/30 02:30:09;;;;;;;;;;;;;;;;;;5065701;27;106284;-78
2023/10/30 02:32:37;;;;;;;;;;;;;;;;;;5065702;27;100496;-78
2023/10/30 02:35:03;;;;;;;;;;;;;;;;;;5065120;27;129124;-77
2023/10/30 02:37:29;;;;;;;;;;;;;;;;;;5069198;27;128186;-77
2023/10/30 02:39:57;;;;;;;;;;;;;;;;;;5066253;27;129939;-76
2023/10/30 02:42:25;;;;;;;;;;;;;;;;;;5063994;27;129053;-77
2023/10/30 02:44:51;;;;;;;;;;;;;;;;;;5065599;27;126431;-78
2023/10/30 02:47:19;;;;;;;;;;;;;;;;;;5066438;27;99834;-78
2023/10/30 02:49:46;;;;;;;;;;;;;;;;;;5063986;27;124615;-78
2023/10/30 02:52:12;;;;;;;;;;;;;;;;;;5065299;27;127674;-78
2023/10/30 02:54:39;;;;;;;;;;;;;;;;;;5066996;27;119072;-78
2023/10/30 02:57:05;;;;;;;;;;;;;;;;;;5063517;27;128545;-78
2023/10/30 02:59:31;;;;;;;;;;;;;;;;;;5069058;27;128821;-78
2023/10/30 03:01:58;;;;;;;;;;;;;;;;;;5065729;27;125866;-77
2023/10/30 03:04:27;;;;;;;;;;;;;;;;;;5066245;27;101383;-76
2023/10/30 03:06:54;;;;;;;;;;;;;;;;;;5064529;27;121167;-78
2023/10/30 03:09:20;;;;;;;;;;;;;;;;;;5065108;27;125856;-77
2023/10/30 03:11:46;;;;;;;;;;;;;;;;;;5065255;27;128291;-76
2023/10/30 03:14:13;;;;;;;;;;;;;;;;;;5065908;27;111663;-77
2023/10/30 03:16:39;;;;;;;;;;;;;;;;;;5064595;27;129586;-78
2023/10/30 03:19:05;;;;;;;;;;;;;;;;;;5063499;27;129497;-76
2023/10/30 03:21:32;;;;;;;;;;;;;;;;;;5068228;27;118421;-77
2023/10/30 03:23:58;;;;;;;;;;;;;;;;;;5064494;27;129499;-77
2023/10/30 03:26:25;;;;;;;;;;;;;;;;;;5065657;27;127973;-78
2023/10/30 03:28:51;;;;;;;;;;;;;;;;;;5064161;27;126760;-78
2023/10/30 03:31:17;;;;;;;;;;;;;;;;;;5064487;27;129594;-78
2023/10/30 03:33:44;;;;;;;;;;;;;;;;;;5065140;27;127708;-78
2023/10/30 03:36:10;;;;;;;;;;;;;;;;;;5064635;27;123944;-78
2023/10/30 03:38:38;;;;;;;;;;;;;;;;;;5065455;27;99067;-78
2023/10/30 03:41:05;;;;;;;;;;;;;;;;;;5066940;27;129334;-78
2023/10/30 03:43:31;;;;;;;;;;;;;;;;;;5065176;27;128958;-77
2023/10/30 03:45:58;;;;;;;;;;;;;;;;;;5064204;27;129748;-78
2023/10/30 03:48:24;;;;;;;;;;;;;;;;;;5066058;27;106748;-78
2023/10/30 03:50:51;;;;;;;;;;;;;;;;;;5065210;27;128216;-78
2023/10/30 03:53:17;;;;;;;;;;;;;;;;;;5064752;27;116217;-78
2023/10/30 03:55:44;;;;;;;;;;;;;;;;;;5064502;27;130136;-78
2023/10/30 03:58:10;;;;;;;;;;;;;;;;;;5065406;27;110118;-78
2023/10/30 04:00:37;;;;;;;;;;;;;;;;;;5064098;27;121009;-78
2023/10/30 04:03:03;;;;;;;;;;;;;;;;;;5067830;27;127189;-78
2023/10/30 04:05:29;;;;;;;;;;;;;;;;;;5067145;27;129375;-78
2023/10/30 04:07:56;;;;;;;;;;;;;;;;;;5067932;27;118759;-78
2023/10/30 04:10:22;;;;;;;;;;;;;;;;;;5068411;27;120423;-78
2023/10/30 04:12:49;;;;;;;;;;;;;;;;;;5067629;27;129705;-77
2023/10/30 04:15:18;;;;;;;;;;;;;;;;;;5069409;27;99595;-78
2023/10/30 04:17:45;;;;;;;;;;;;;;;;;;5068209;27;130140;-78
2023/10/30 04:20:11;;;;;;;;;;;;;;;;;;5067642;27;122012;-77
2023/10/30 04:22:38;;;;;;;;;;;;;;;;;;5068326;27;130507;-77
2023/10/30 04:25:06;;;;;;;;;;;;;;;;;;5074019;27;129368;-78
2023/10/30 04:27:35;;;;;;;;;;;;;;;;;;5069797;27;125228;-78
2023/10/30 04:30:02;;;;;;;;;;;;;;;;;;5069599;27;129483;-77
2023/10/30 04:32:28;;;;;;;;;;;;;;;;;;5068690;27;129138;-77
2023/10/30 04:34:55;;;;;;;;;;;;;;;;;;5067629;27;126220;-79
2023/10/30 04:37:22;;;;;;;;;;;;;;;;;;5067862;27;129545;-78
2023/10/30 04:39:49;;;;;;;;;;;;;;;;;;5069151;27;113211;-77
2023/10/30 04:42:15;;;;;;;;;;;;;;;;;;5067768;27;124732;-77
2023/10/30 04:44:42;;;;;;;;;;;;;;;;;;5068087;27;128844;-76
2023/10/30 04:47:08;;;;;;;;;;;;;;;;;;5071251;27;112360;-78
2023/10/30 04:49:35;;;;;;;;;;;;;;;;;;5067021;27;115159;-76
2023/10/30 04:52:02;;;;;;;;;;;;;;;;;;5067601;27;121723;-78
2023/10/30 04:54:28;;;;;;;;;;;;;;;;;;5068022;27;128543;-78
2023/10/30 04:56:54;;;;;;;;;;;;;;;;;;5067737;27;102447;-78
2023/10/30 04:59:21;;;;;;;;;;;;;;;;;;5068166;27;121775;-77
2023/10/30 05:01:47;;;;;;;;;;;;;;;;;;5068196;27;116687;-76
2023/10/30 05:04:15;;;;;;;;;;;;;;;;;;5066820;27;130273;-77
2023/10/30 05:06:41;;;;;;;;;;;;;;;;;;5068181;27;128666;-77
2023/10/30 05:09:08;;;;;;;;;;;;;;;;;;5070069;27;124584;-77
2023/10/30 05:11:34;;;;;;;;;;;;;;;;;;5067728;27;126647;-78
2023/10/30 05:14:00;;;;;;;;;;;;;;;;;;5067254;27;115801;-77
2023/10/30 05:16:28;;;;;;;;;;;;;;;;;;5067121;27;111109;-76
2023/10/30 05:18:54;;;;;;;;;;;;;;;;;;5065161;27;123546;-78
2023/10/30 05:21:21;;;;;;;;;;;;;;;;;;5066965;27;128891;-78
2023/10/30 05:23:48;;;;;;;;;;;;;;;;;;5066638;27;126360;-78
2023/10/30 05:26:15;;;;;;;;;;;;;;;;;;5065881;27;129745;-77
2023/10/30 05:28:41;;;;;;;;;;;;;;;;;;5067503;27;124913;-77
2023/10/30 05:31:07;;;;;;;;;;;;;;;;;;5068730;27;98227;-78
2023/10/30 05:33:35;;;;;;;;;;;;;;;;;;5067207;27;129825;-76
2023/10/30 05:36:01;;;;;;;;;;;;;;;;;;5066009;27;121758;-76
2023/10/30 05:38:27;;;;;;;;;;;;;;;;;;5065571;27;129033;-77
2023/10/30 05:40:54;;;;;;;;;;;;;;;;;;5066981;27;130149;-76
2023/10/30 05:43:20;;;;;;;;;;;;;;;;;;5067160;27;129314;-77
2023/10/30 05:45:47;;;;;;;;;;;;;;;;;;5066516;27;129041;-77
2023/10/30 05:48:14;;;;;;;;;;;;;;;;;;5066873;27;128873;-77
2023/10/30 05:50:40;;;;;;;;;;;;;;;;;;5070321;27;129489;-76
2023/10/30 05:53:06;;;;;;;;;;;;;;;;;;5066024;27;129946;-76
2023/10/30 05:55:32;;;;;;;;;;;;;;;;;;5067225;27;129575;-76
2023/10/30 05:57:59;;;;;;;;;;;;;;;;;;5066428;27;128367;-76
2023/10/30 06:00:25;;;;;;;;;;;;;;;;;;5066114;27;129642;-78
2023/10/30 06:02:52;;;;;;;;;;;;;;;;;;5065403;27;129366;-76
2023/10/30 06:05:18;;;;;;;;;;;;;;;;;;5065819;27;129910;-77
2023/10/30 06:07:45;;;;;;;;;;;;;;;;;;5066899;27;127069;-76
2023/10/30 06:10:11;;;;;;;;;;;;;;;;;;5066307;27;129447;-78
2023/10/30 06:12:38;;;;;;;;;;;;;;;;;;5069190;27;128922;-77
2023/10/30 06:15:04;;;;;;;;;;;;;;;;;;5066139;27;130484;-77
2023/10/30 06:17:31;;;;;;;;;;;;;;;;;;5065886;27;129389;-77
2023/10/30 06:20:00;;;;;;;;;;;;;;;;;;5065519;27;129010;-77
2023/10/30 06:22:26;;;;;;;;;;;;;;;;;;5066528;27;128188;-76
2023/10/30 06:24:54;;;;;;;;;;;;;;;;;;5066319;27;127933;-77
2023/10/30 06:27:20;;;;;;;;;;;;;;;;;;5062780;27;131719;-76
2023/10/30 06:29:47;;;;;;;;;;;;;;;;;;5066185;27;129038;-78
2023/10/30 06:32:13;;;;;;;;;;;;;;;;;;5065456;27;128268;-78
2023/10/30 06:34:42;;;;;;;;;;;;;;;;;;5069304;27;116842;-77
2023/10/30 06:37:09;;;;;;;;;;;;;;;;;;5065687;27;129895;-76
2023/10/30 06:39:37;;;;;;;;;;;;;;;;;;5066128;27;130237;-76
2023/10/30 06:42:03;;;;;;;;;;;;;;;;;;5064987;27;129909;-77
2023/10/30 06:44:30;;;;;;;;;;;;;;;;;;5066106;27;127762;-76
2023/10/30 06:46:57;;;;;;;;;;;;;;;;;;5065715;27;129848;-77
2023/10/30 06:49:24;;;;;;;;;;;;;;;;;;5064604;27;130375;-77
2023/10/30 06:51:50;;;;;;;;;;;;;;;;;;5065271;27;128352;-76
2023/10/30 06:54:17;;;;;;;;;;;;;;;;;;5065843;27;129895;-78
2023/10/30 06:56:43;;;;;;;;;;;;;;;;;;5068298;27;129355;-77
2023/10/30 06:59:14;;;;;;;;;;;;;;;;;;5065359;27;129760;-76
2023/10/30 07:01:45;;;;;;;;;;;;;;;;;;5066097;27;99966;-77
2023/10/30 07:04:11;;;;;;;;;;;;;;;;;;5065164;27;130279;-78
2023/10/30 07:06:38;;;;;;;;;;;;;;;;;;5065565;27;129523;-77
2023/10/30 07:09:06;;;;;;;;;;;;;;;;;;5065067;27;128835;-78
2023/10/30 07:11:33;;;;;;;;;;;;;;;;;;5065764;27;127013;-78
2023/10/30 07:14:01;;;;;;;;;;;;;;;;;;5065385;27;129625;-78
2023/10/30 07:16:28;;;;;;;;;;;;;;;;;;5064441;27;129431;-79
2023/10/30 07:18:55;;;;;;;;;;;;;;;;;;5068309;27;126448;-79
2023/10/30 07:21:22;;;;;;;;;;;;;;;;;;5065426;27;129778;-79
2023/10/30 07:23:48;;;;;;;;;;;;;;;;;;5064610;27;129884;-78
2023/10/30 07:26:15;;;;;;;;;;;;;;;;;;5065932;27;100204;-78
2023/10/30 07:28:41;;;;;;;;;;;;;;;;;;5065362;27;129351;-78
2023/10/30 07:31:08;;;;;;;;;;;;;;;;;;5063003;27;129071;-79
2023/10/30 07:33:35;;;;;;;;;;;;;;;;;;5065802;27;127533;-79
2023/10/30 07:36:01;;;;;;;;;;;;;;;;;;5065023;27;129414;-78
2023/10/30 07:38:29;;;;;;;;;;;;;;;;;;5066703;27;129287;-77
2023/10/30 07:40:55;;;;;;;;;;;;;;;;;;5064016;27;130006;-77
2023/10/30 07:43:23;;;;;;;;;;;;;;;;;;5066083;27;100295;-77
2023/10/30 07:45:50;;;;;;;;;;;;;;;;;;5064355;27;130761;-77
2023/10/30 07:48:16;;;;;;;;;;;;;;;;;;5048686;27;129517;-77
2023/10/30 07:50:43;;;;;;;;;;;;;;;;;;5043994;27;125848;-78
2023/10/30 07:53:11;;;;;;;;;;;;;;;;;;5043702;27;128920;-77
2023/10/30 07:55:38;;;;;;;;;;;;;;;;;;5044349;27;129243;-77
2023/10/30 07:58:08;;;;;;;;;;;;;;;;;;5045228;27;99401;-77
2023/10/30 08:00:34;;;;;;;;;;;;;;;;;;5047793;27;129769;-78
2023/10/30 08:03:14;;;;;;;;;;;;;;;;;;5044234;27;126621;-77
2023/10/30 08:05:40;;;;;;;;;;;;;;;;;;5042967;27;130943;-77
2023/10/30 08:08:07;;;;;;;;;;;;;;;;;;5044042;27;128868;-78
2023/10/30 08:10:36;;;;;;;;;;;;;;;;;;5044562;27;129423;-78
2023/10/30 08:13:02;;;;;;;;;;;;;;;;;;5043309;27;129778;-78
2023/10/30 08:15:28;;;;;;;;;;;;;;;;;;5044333;27;126906;-76
2023/10/30 08:17:55;;;;;;;;;;;;;;;;;;5045232;27;129020;-78
2023/10/30 08:20:22;;;;;;;;;;;;;;;;;;5043281;27;130466;-76
2023/10/30 08:22:48;;;;;;;;;;;;;;;;;;5047868;27;129677;-75
2023/10/30 08:25:14;;;;;;;;;;;;;;;;;;5044320;27;118719;-75
2023/10/30 08:27:41;;;;;;;;;;;;;;;;;;5043383;27;129482;-77
2023/10/30 08:30:07;;;;;;;;;;;;;;;;;;5048238;27;129061;-77
2023/10/30 08:32:34;;;;;;;;;;;;;;;;;;5064498;27;130317;-75
2023/10/30 08:35:02;;;;;;;;;;;;;;;;;;5057601;27;129464;-75
2023/10/30 08:37:28;;;;;;;;;;;;;;;;;;5051743;27;128698;-75
2023/10/30 08:39:55;;;;;;;;;;;;;;;;;;5042971;27;130580;-77
2023/10/30 08:42:21;;;;;;;;;;;;;;;;;;5063274;27;129437;-76
2023/10/30 08:44:47;;;;;;;;;;;;;;;;;;5067897;27;126261;-76
2023/10/30 08:47:14;;;;;;;;;;;;;;;;;;5063505;27;129338;-75
2023/10/30 08:49:45;;;;;;;;;;;;;;;;;;5043873;27;128195;-75
2023/10/30 08:52:11;;;;;;;;;;;;;;;;;;5047343;27;129747;-74
2023/10/30 08:54:38;;;;;;;;;;;;;;;;;;5046078;27;129593;-75
2023/10/30 08:57:04;;;;;;;;;;;;;;;;;;5046984;27;128407;-75
2023/10/30 08:59:42;;;;;;;;;;;;;;;;;;5047129;27;129728;-75
2023/10/30 09:02:08;;;;;;;;;;;;;;;;;;5046171;27;120612;-76
2023/10/30 09:04:36;;;;;;;;;;;;;;;;;;5047081;27;129112;-75
2023/10/30 09:07:02;;;;;;;;;;;;;;;;;;5048624;27;129835;-77
2023/10/30 09:09:28;;;;;;;;;;;;;;;;;;5046849;27;110090;-76
2023/10/30 09:11:55;;;;;;;;;;;;;;;;;;5047346;27;129435;-76
2023/10/30 09:14:21;;;;;;;;;;;;;;;;;;5045576;27;129538;-77
2023/10/30 09:16:51;;;;;;;;;;;;;;;;;;5045439;27;125086;-77
2023/10/30 09:19:20;;;;;;;;;;;;;;;;;;5046229;27;130399;-77
2023/10/30 09:21:46;;;;;;;;;;;;;;;;;;5046957;27;130333;-77
2023/10/30 09:24:13;;;;;;;;;;;;;;;;;;5045485;27;115263;-77
2023/10/30 09:26:40;;;;;;;;;;;;;;;;;;5047224;27;100384;-76
2023/10/30 09:29:07;;;;;;;;;;;;;;;;;;5048787;27;130245;-77
2023/10/30 09:31:33;;;;;;;;;;;;;;;;;;5049353;27;130544;-76
2023/10/30 09:33:59;;;;;;;;;;;;;;;;;;5066739;27;130000;-77
2023/10/30 09:36:27;;;;;;;;;;;;;;;;;;5067113;27;129071;-76
2023/10/30 09:38:53;;;;;;;;;;;;;;;;;;5069258;27;129775;-76
2023/10/30 09:41:20;;;;;;;;;;;;;;;;;;5067436;27;128353;-76
2023/10/30 09:43:46;;;;;;;;;;;;;;;;;;5065469;27;128670;-76
2023/10/30 09:46:14;;;;;;;;;;;;;;;;;;5055831;27;130256;-78
2023/10/30 09:48:40;;;;;;;;;;;;;;;;;;5066779;27;126923;-76
2023/10/30 09:51:07;;;;;;;;;;;;;;;;;;5065731;27;129843;-76
2023/10/30 09:53:34;;;;;;;;;;;;;;;;;;5066654;27;129410;-76
2023/10/30 09:56:01;;;;;;;;;;;;;;;;;;5066456;27;127190;-75
2023/10/30 09:58:28;;;;;;;;;;;;;;;;;;5066143;27;129950;-75
2023/10/30 10:00:54;;;;;;;;;;;;;;;;;;5066658;27;128505;-75
2023/10/30 10:03:21;;;;;;;;;;;;;;;;;;5065924;27;128351;-75
2023/10/30 10:05:48;;;;;;;;;;;;;;;;;;5065656;27;129901;-75
2023/10/30 10:08:14;;;;;;;;;;;;;;;;;;5065830;27;129471;-77
2023/10/30 10:10:40;;;;;;;;;;;;;;;;;;5069875;27;129898;-75
2023/10/30 10:13:07;;;;;;;;;;;;;;;;;;5065513;27;129355;-76
2023/10/30 10:15:33;;;;;;;;;;;;;;;;;;5066676;27;122458;-78
2023/10/30 10:18:01;;;;;;;;;;;;;;;;;;5065599;27;127558;-75
2023/10/30 10:20:28;;;;;;;;;;;;;;;;;;5065700;27;129995;-74
2023/10/30 10:22:54;;;;;;;;;;;;;;;;;;5066179;27;127778;-75
2023/10/30 10:25:21;;;;;;;;;;;;;;;;;;5066378;27;128746;-75
2023/10/30 10:27:49;;;;;;;;;;;;;;;;;;5066171;27;129149;-74
2023/10/30 10:30:18;;;;;;;;;;;;;;;;;;5066363;27;126533;-74
2023/10/30 10:32:44;;;;;;;;;;;;;;;;;;5068544;27;128586;-75
2023/10/30 10:35:11;;;;;;;;;;;;;;;;;;5065941;27;131197;-75
2023/10/30 10:37:38;;;;;;;;;;;;;;;;;;5066210;27;130372;-74
2023/10/30 10:40:05;;;;;;;;;;;;;;;;;;5064952;27;122081;-74
2023/10/30 10:42:32;;;;;;;;;;;;;;;;;;5066044;27;129226;-73
2023/10/30 10:44:58;;;;;;;;;;;;;;;;;;5065929;27;121938;-75
2023/10/30 10:47:24;;;;;;;;;;;;;;;;;;5065377;27;129522;-74
2023/10/30 10:49:51;;;;;;;;;;;;;;;;;;5066295;27;129047;-75
2023/10/30 10:52:17;;;;;;;;;;;;;;;;;;5065982;27;129577;-74
2023/10/30 10:54:43;;;;;;;;;;;;;;;;;;5068430;27;115613;-77
2023/10/30 10:57:10;;;;;;;;;;;;;;;;;;5065016;27;130359;-76
2023/10/30 10:59:36;;;;;;;;;;;;;;;;;;5065816;27;129313;-75
2023/10/30 11:02:02;;;;;;;;;;;;;;;;;;5064849;27;128916;-76
2023/10/30 11:04:29;;;;;;;;;;;;;;;;;;5066125;27;130665;-75
2023/10/30 11:06:56;;;;;;;;;;;;;;;;;;5065283;27;130026;-75
2023/10/30 11:09:24;;;;;;;;;;;;;;;;;;5064835;27;129786;-75
2023/10/30 11:11:50;;;;;;;;;;;;;;;;;;5065372;27;129748;-76
2023/10/30 11:14:16;;;;;;;;;;;;;;;;;;5065547;27;130200;-75
2023/10/30 11:16:44;;;;;;;;;;;;;;;;;;5068244;27;129293;-75
2023/10/30 11:19:12;;;;;;;;;;;;;;;;;;5064989;27;129390;-76
2023/10/30 11:21:39;;;;;;;;;;;;;;;;;;5064058;27;129815;-75
2023/10/30 11:24:06;;;;;;;;;;;;;;;;;;5065137;27;129834;-76
2023/10/30 11:26:39;;;;;;;;;;;;;;;;;;5065286;27;129809;-75
2023/10/30 11:29:06;;;;;;;;;;;;;;;;;;5064344;27;129095;-74
2023/10/30 11:31:33;;;;;;;;;;;;;;;;;;5065204;27;129722;-74
2023/10/30 11:33:59;;;;;;;;;;;;;;;;;;5064775;27;128130;-74
2023/10/30 11:36:26;;;;;;;;;;;;;;;;;;5064786;27;129146;-74
2023/10/30 11:38:53;;;;;;;;;;;;;;;;;;5068563;27;129033;-74
2023/10/30 11:41:21;;;;;;;;;;;;;;;;;;5065190;27;128450;-74
2023/10/30 11:43:48;;;;;;;;;;;;;;;;;;5064756;27;125390;-75
2023/10/30 11:46:14;;;;;;;;;;;;;;;;;;5054551;27;129212;-76
2023/10/30 11:48:41;;;;;;;;;;;;;;;;;;5044882;27;125627;-74
2023/10/30 11:51:07;;;;;;;;;;;;;;;;;;5043455;27;129863;-75
2023/10/30 11:53:33;;;;;;;;;;;;;;;;;;5044758;27;129252;-74
2023/10/30 11:56:00;;;;;;;;;;;;;;;;;;5045080;27;99086;-75
2023/10/30 11:58:26;;;;;;;;;;;;;;;;;;5067617;27;129616;-74
2023/10/30 12:00:53;;;;;;;;;;;;;;;;;;5064560;27;129125;-75
2023/10/30 12:03:22;;;;;;;;;;;;;;;;;;5065374;27;128722;-75
2023/10/30 12:05:48;;;;;;;;;;;;;;;;;;5064061;27;130076;-75
2023/10/30 12:08:14;;;;;;;;;;;;;;;;;;5064543;27;129163;-75
2023/10/30 12:10:41;;;;;;;;;;;;;;;;;;5064309;27;129634;-74
2023/10/30 12:13:07;;;;;;;;;;;;;;;;;;5063854;27;125327;-75
2023/10/30 12:15:34;;;;;;;;;;;;;;;;;;5064837;27;129910;-75
2023/10/30 12:18:00;;;;;;;;;;;;;;;;;;5063308;27;119810;-77
2023/10/30 12:20:26;;;;;;;;;;;;;;;;;;5068469;27;126015;-76
2023/10/30 12:22:53;;;;;;;;;;;;;;;;;;5064259;27;129758;-76
2023/10/30 12:25:19;;;;;;;;;;;;;;;;;;5051584;27;130135;-75
2023/10/30 12:27:45;;;;;;;;;;;;;;;;;;5048053;27;130028;-76
2023/10/30 12:30:12;;;;;;;;;;;;;;;;;;5052452;27;130257;-76
2023/10/30 12:32:38;;;;;;;;;;;;;;;;;;5067490;27;129739;-76
2023/10/30 12:35:04;;;;;;;;;;;;;;;;;;5067180;27;129118;-75
2023/10/30 12:37:31;;;;;;;;;;;;;;;;;;5067993;27;129984;-75
2023/10/30 12:39:57;;;;;;;;;;;;;;;;;;5066767;27;129652;-76
2023/10/30 12:42:24;;;;;;;;;;;;;;;;;;5065583;27;129539;-76
2023/10/30 12:44:50;;;;;;;;;;;;;;;;;;5066921;27;127052;-76
2023/10/30 12:47:16;;;;;;;;;;;;;;;;;;5067239;27;129087;-75
2023/10/30 12:49:43;;;;;;;;;;;;;;;;;;5067977;27;126203;-76
2023/10/30 12:52:09;;;;;;;;;;;;;;;;;;5068881;27;107303;-75
2023/10/30 12:54:36;;;;;;;;;;;;;;;;;;5067131;27;127492;-75
2023/10/30 12:57:03;;;;;;;;;;;;;;;;;;5067499;27;129707;-75
2023/10/30 12:59:30;;;;;;;;;;;;;;;;;;5067017;27;129606;-76
2023/10/30 13:01:56;;;;;;;;;;;;;;;;;;5066785;27;129799;-76
2023/10/30 13:04:24;;;;;;;;;;;;;;;;;;5071272;27;131380;-76
2023/10/30 13:06:54;;;;;;;;;;;;;;;;;;5067364;27;127229;-74
2023/10/30 13:09:20;;;;;;;;;;;;;;;;;;5066881;27;130308;-75
2023/10/30 13:11:47;;;;;;;;;;;;;;;;;;5067413;27;129484;-76
2023/10/30 13:14:13;;;;;;;;;;;;;;;;;;5066310;27;129603;-76
2023/10/30 13:16:39;;;;;;;;;;;;;;;;;;5068329;27;116738;-76
2023/10/30 13:19:06;;;;;;;;;;;;;;;;;;5066771;27;129517;-75
2023/10/30 13:21:32;;;;;;;;;;;;;;;;;;5066688;27;129183;-75
2023/10/30 13:23:59;;;;;;;;;;;;;;;;;;5066394;27;131326;-75
2023/10/30 13:26:26;;;;;;;;;;;;;;;;;;5057451;27;129554;-75
2023/10/30 13:28:53;;;;;;;;;;;;;;;;;;5045402;27;129714;-75
2023/10/30 13:31:19;;;;;;;;;;;;;;;;;;5046529;27;128634;-75
2023/10/30 13:33:48;;;;;;;;;;;;;;;;;;5047600;27;98699;-75
2023/10/30 13:36:14;;;;;;;;;;;;;;;;;;5045418;27;129568;-76
2023/10/30 13:38:41;;;;;;;;;;;;;;;;;;5046869;27;129510;-75
2023/10/30 13:41:07;;;;;;;;;;;;;;;;;;5046876;27;124941;-75
2023/10/30 13:43:34;;;;;;;;;;;;;;;;;;5045848;27;129554;-75
2023/10/30 13:46:01;;;;;;;;;;;;;;;;;;5047213;27;99022;-75
2023/10/30 13:48:28;;;;;;;;;;;;;;;;;;5049373;27;129025;-75
2023/10/30 13:50:54;;;;;;;;;;;;;;;;;;5045802;27;129976;-76
2023/10/30 13:53:21;;;;;;;;;;;;;;;;;;5046526;27;127687;-75
2023/10/30 13:55:47;;;;;;;;;;;;;;;;;;5046286;27;129753;-75
2023/10/30 13:58:13;;;;;;;;;;;;;;;;;;5065345;27;116362;-75
2023/10/30 14:00:40;;;;;;;;;;;;;;;;;;5066706;27;129047;-75
2023/10/30 14:03:06;;;;;;;;;;;;;;;;;;5066526;27;129707;-75
2023/10/30 14:05:35;;;;;;;;;;;;;;;;;;5067391;27;99224;-75
2023/10/30 14:08:01;;;;;;;;;;;;;;;;;;5069582;27;128472;-75
2023/10/30 14:10:28;;;;;;;;;;;;;;;;;;5065678;27;125898;-75
2023/10/30 14:12:54;;;;;;;;;;;;;;;;;;5065702;27;128835;-75
2023/10/30 14:15:20;;;;;;;;;;;;;;;;;;5059329;27;129851;-75
2023/10/30 14:17:46;;;;;;;;;;;;;;;;;;5058312;27;127686;-75
2023/10/30 14:20:13;;;;;;;;;;;;;;;;;;5058880;27;127689;-75
2023/10/30 14:22:39;;;;;;;;;;;;;;;;;;5046138;27;129987;-75
2023/10/30 14:25:05;;;;;;;;;;;;;;;;;;5044713;27;129915;-73
2023/10/30 14:27:32;;;;;;;;;;;;;;;;;;5045589;27;129439;-73
2023/10/30 14:29:59;;;;;;;;;;;;;;;;;;5049357;27;125979;-74
2023/10/30 14:32:25;;;;;;;;;;;;;;;;;;5043983;27;127999;-74
2023/10/30 14:34:52;;;;;;;;;;;;;;;;;;5051175;27;130067;-74
2023/10/30 14:37:18;;;;;;;;;;;;;;;;;;5065753;27;121166;-73
2023/10/30 14:39:44;;;;;;;;;;;;;;;;;;5051931;27;130664;-74
2023/10/30 14:42:11;;;;;;;;;;;;;;;;;;5045294;27;129804;-73
2023/10/30 14:44:37;;;;;;;;;;;;;;;;;;5063645;27;130035;-74
2023/10/30 14:47:03;;;;;;;;;;;;;;;;;;5064890;27;129395;-74
2023/10/30 14:49:30;;;;;;;;;;;;;;;;;;5055201;27;129561;-76
2023/10/30 14:51:56;;;;;;;;;;;;;;;;;;5050442;27;129623;-76
2023/10/30 14:54:24;;;;;;;;;;;;;;;;;;5061240;27;120035;-75
2023/10/30 14:56:50;;;;;;;;;;;;;;;;;;5064026;27;129534;-75
2023/10/30 14:59:17;;;;;;;;;;;;;;;;;;5065873;27;129037;-76
2023/10/30 15:01:43;;;;;;;;;;;;;;;;;;5064550;27;131040;-75
2023/10/30 15:04:09;;;;;;;;;;;;;;;;;;5065243;27;129667;-75
2023/10/30 15:06:36;;;;;;;;;;;;;;;;;;5065343;27;129161;-75
2023/10/30 15:09:05;;;;;;;;;;;;;;;;;;5044864;27;129779;-75
2023/10/30 15:11:31;;;;;;;;;;;;;;;;;;5045143;27;128310;-75
2023/10/30 15:13:58;;;;;;;;;;;;;;;;;;5062650;27;129554;-75
2023/10/30 15:16:25;;;;;;;;;;;;;;;;;;5065376;27;127923;-75
2023/10/30 15:18:51;;;;;;;;;;;;;;;;;;5065212;27;126162;-75
2023/10/30 15:21:20;;;;;;;;;;;;;;;;;;5064751;27;129699;-75
2023/10/30 15:23:46;;;;;;;;;;;;;;;;;;5065420;27;129469;-75
2023/10/30 15:26:12;;;;;;;;;;;;;;;;;;5064886;27;125179;-75
2023/10/30 15:28:39;;;;;;;;;;;;;;;;;;5064710;27;125019;-75
2023/10/30 15:31:05;;;;;;;;;;;;;;;;;;5064820;27;129435;-75
2023/10/30 15:33:32;;;;;;;;;;;;;;;;;;5065499;27;127575;-75
2023/10/30 15:35:58;;;;;;;;;;;;;;;;;;5053649;27;129742;-75
2023/10/30 15:38:27;;;;;;;;;;;;;;;;;;5050347;27;129024;-78
2023/10/30 15:40:54;;;;;;;;;;;;;;;;;;5065266;27;116860;-76
2023/10/30 15:43:21;;;;;;;;;;;;;;;;;;5051859;27;128060;-75
2023/10/30 15:45:48;;;;;;;;;;;;;;;;;;5045893;27;128364;-75
2023/10/30 15:48:15;;;;;;;;;;;;;;;;;;5061562;27;127581;-75
2023/10/30 15:50:41;;;;;;;;;;;;;;;;;;5064131;27;129670;-73
2023/10/30 15:53:08;;;;;;;;;;;;;;;;;;5064871;27;128400;-74
2023/10/30 15:55:34;;;;;;;;;;;;;;;;;;5066043;27;100463;-75
2023/10/30 15:58:01;;;;;;;;;;;;;;;;;;5068372;27;98712;-75
2023/10/30 16:00:28;;;;;;;;;;;;;;;;;;5063993;27;129784;-75
2023/10/30 16:02:57;;;;;;;;;;;;;;;;;;5064647;27;130011;-76
2023/10/30 16:05:44;;;;;;;;;;;;;;;;;;5065882;27;98514;-78
2023/10/30 16:08:30;;;;;;;;;;;;;;;;;;5066492;27;99339;-79
2023/10/30 16:10:59;;;;;;;;;;;;;;;;;;5064901;27;99013;-79
2023/10/30 16:13:28;;;;;;;;;;;;;;;;;;5066057;27;99366;-78
2023/10/30 16:15:58;;;;;;;;;;;;;;;;;;5065263;27;101156;-78
2023/10/30 16:18:24;;;;;;;;;;;;;;;;;;5057340;27;129220;-77
2023/10/30 16:20:51;;;;;;;;;;;;;;;;;;5056317;27;126644;-78
2023/10/30 16:23:20;;;;;;;;;;;;;;;;;;5065639;27;99851;-77
2023/10/30 16:25:46;;;;;;;;;;;;;;;;;;5043510;27;129067;-77